West Fenwick, Delaware
Current Conditions -  °F | °C
As of 10:16 AM on Monday 24 Nov 2014 (Local Time) from KOXB Reporting Station
Light Rain Light Rain  
Wind Chill: 60°   Ceiling: 200
Heat Index: 60°   Visibility: 1.2mi
Dew Point: 59°   Wind: 12mph
Humidity: 96%   Direction: 210°SSW
Pressure: 29.78"   Gusts: 22mph
Location:  38.4673°N, 75.1926°W
Report Text: KOXB 241516Z AUTO 21010G19KT 1 1/4SM -RA BR OVC002 16/15 A2978 RMK AO2 P0000 T01560150 TSNO
Loading
Personal Weather Stations






























Interactive Weather Map New forecast layout! Learn more

10-Day Weather Forecast

Advertisements
Track Severe Weather on mobile